createdAt,value
2019-06-01T00:01:16.740Z,101143.72
2019-06-01T00:03:46.359Z,101139.84
2019-06-01T00:06:15.219Z,101146.36
2019-06-01T00:08:45.008Z,101138.72
2019-06-01T00:11:13.769Z,101142.63
2019-06-01T00:13:43.393Z,101147.47
2019-06-01T00:16:12.152Z,101148.82
2019-06-01T00:18:41.781Z,101148.02
2019-06-01T00:21:10.418Z,101151.60
2019-06-01T00:23:40.287Z,101141.80
2019-06-01T00:26:08.963Z,101142.24
2019-06-01T00:28:37.404Z,101135.82
2019-06-01T00:31:05.829Z,101140.59
2019-06-01T00:33:34.258Z,101137.72
2019-06-01T00:36:02.702Z,101141.59
2019-06-01T00:38:31.146Z,101136.50
2019-06-01T00:40:59.578Z,101142.98
2019-06-01T00:43:28.073Z,101143.91
2019-06-01T00:45:56.507Z,101141.81
2019-06-01T00:48:24.940Z,101146.52
2019-06-01T00:50:53.391Z,101141.58
2019-06-01T00:53:21.891Z,101140.80
2019-06-01T00:55:51.488Z,101137.87
2019-06-01T00:58:20.071Z,101140.03
2019-06-01T01:00:49.446Z,101141.86
2019-06-01T01:03:18.665Z,101141.92
2019-06-01T01:05:47.239Z,101144.86
2019-06-01T01:08:16.938Z,101135.11
2019-06-01T01:10:45.379Z,101140.30
2019-06-01T01:13:18.159Z,101139.52
2019-06-01T01:15:47.255Z,101143.84
2019-06-01T01:18:16.091Z,101140.06
2019-06-01T01:20:45.748Z,101139.22
2019-06-01T01:23:14.675Z,101135.41
2019-06-01T01:25:43.112Z,101130.82
2019-06-01T01:28:11.561Z,101136.82
2019-06-01T01:30:40.861Z,101131.69
2019-06-01T01:33:09.295Z,101133.52
2019-06-01T01:35:37.822Z,101129.68
2019-06-01T01:38:06.326Z,101134.50
2019-06-01T01:40:34.829Z,101132.04
2019-06-01T01:43:03.412Z,101137.22
2019-06-01T01:45:31.832Z,101133.36
2019-06-01T01:48:01.412Z,101134.67
2019-06-01T01:50:30.331Z,101129.13
2019-06-01T01:52:59.075Z,101130.42
2019-06-01T01:55:27.548Z,101127.89
2019-06-01T01:57:57.526Z,101123.25
2019-06-01T02:00:38.329Z,101123.27
2019-06-01T02:03:07.521Z,101119.05
2019-06-01T02:05:35.960Z,101127.20
2019-06-01T02:08:05.669Z,101130.81
2019-06-01T02:10:34.175Z,101131.70
2019-06-01T02:13:02.613Z,101127.88
2019-06-01T02:15:31.202Z,101134.28
2019-06-01T02:18:00.560Z,101130.92
2019-06-01T02:20:29.535Z,101131.84
2019-06-01T02:22:58.915Z,101131.87
2019-06-01T02:25:27.618Z,101133.64
2019-06-01T02:27:57.346Z,101135.79
2019-06-01T02:30:26.167Z,101140.63
2019-06-01T02:32:56.301Z,101136.37
2019-06-01T02:35:24.798Z,101135.64
2019-06-01T02:37:54.685Z,101136.91
2019-06-01T02:40:25.628Z,101133.03
2019-06-01T02:42:55.010Z,101136.92
2019-06-01T02:45:23.825Z,101125.77
2019-06-01T02:47:52.275Z,101135.21
2019-06-01T02:50:21.148Z,101134.40
2019-06-01T02:52:49.588Z,101136.55
2019-06-01T02:55:20.847Z,101139.10
2019-06-01T02:57:49.290Z,101142.15
2019-06-01T03:00:20.580Z,101140.05
2019-06-01T03:02:49.141Z,101148.69
2019-06-01T03:05:18.896Z,101139.23
2019-06-01T03:07:49.216Z,101138.86
2019-06-01T03:10:17.801Z,101137.12
2019-06-01T03:12:47.024Z,101135.03
2019-06-01T03:15:17.182Z,101137.16
2019-06-01T03:17:48.124Z,101132.48
2019-06-01T03:20:18.093Z,101141.08
2019-06-01T03:22:49.571Z,101139.83
2019-06-01T03:25:18.088Z,101136.89
2019-06-01T03:27:49.905Z,101134.34
2019-06-01T03:30:24.167Z,101134.41
2019-06-01T03:32:52.598Z,101130.12
2019-06-01T03:35:21.108Z,101131.84
2019-06-01T03:37:50.020Z,101129.31
2019-06-01T03:40:23.689Z,101128.10
2019-06-01T03:42:48.627Z,101130.70
2019-06-01T03:45:17.511Z,101134.98
2019-06-01T03:47:46.019Z,101137.09
2019-06-01T03:50:14.535Z,101143.90
2019-06-01T03:52:42.986Z,101138.77
2019-06-01T03:55:12.030Z,101136.16
2019-06-01T03:57:40.552Z,101138.28
2019-06-01T04:00:09.428Z,101137.85
2019-06-01T04:02:38.228Z,101144.64
2019-06-01T04:05:07.388Z,101142.04
2019-06-01T04:07:38.783Z,101149.34
2019-06-01T04:10:08.079Z,101152.27
2019-06-01T04:12:36.810Z,101150.55
2019-06-01T04:15:11.651Z,101150.48
2019-06-01T04:17:38.411Z,101152.16
2019-06-01T04:20:08.181Z,101151.21
2019-06-01T04:22:36.893Z,101154.14
2019-06-01T04:25:06.683Z,101156.64
2019-06-01T04:27:35.243Z,101156.59
2019-06-01T04:30:04.523Z,101162.92
2019-06-01T04:32:48.516Z,101161.61
2019-06-01T04:35:04.961Z,101161.08
2019-06-01T04:37:33.611Z,101157.42
2019-06-01T04:40:03.238Z,101161.58
2019-06-01T04:42:31.898Z,101164.88
2019-06-01T04:45:00.336Z,101167.66
2019-06-01T04:47:28.797Z,101157.20
2019-06-01T04:49:57.229Z,101157.06
2019-06-01T04:52:25.685Z,101157.30
2019-06-01T04:54:54.120Z,101159.73
2019-06-01T04:57:22.548Z,101162.98
2019-06-01T04:59:50.998Z,101164.08
2019-06-01T05:02:19.429Z,101170.55
2019-06-01T05:04:47.870Z,101171.53
2019-06-01T05:07:16.601Z,101169.89
2019-06-01T05:09:45.045Z,101165.73
2019-06-01T05:12:13.675Z,101170.53
2019-06-01T05:14:42.419Z,101171.48
2019-06-01T05:17:12.925Z,101172.26
2019-06-01T05:19:41.025Z,101171.41
2019-06-01T05:22:10.489Z,101172.97
2019-06-01T05:24:38.973Z,101168.94
2019-06-01T05:27:07.500Z,101168.75
2019-06-01T05:29:36.003Z,101170.95
2019-06-01T05:32:04.567Z,101168.23
2019-06-01T05:34:33.006Z,101168.31
2019-06-01T05:37:01.448Z,101167.24
2019-06-01T05:39:29.892Z,101164.94
2019-06-01T05:41:58.391Z,101172.15
2019-06-01T05:44:26.792Z,101172.59
2019-06-01T05:46:55.338Z,101173.23
2019-06-01T05:49:23.838Z,101163.42
2019-06-01T05:51:52.296Z,101168.38
2019-06-01T05:54:20.763Z,101169.33
2019-06-01T05:56:49.202Z,101173.47
2019-06-01T05:59:18.238Z,101176.92
2019-06-01T06:01:46.801Z,101172.32
2019-06-01T06:04:15.416Z,101178.16
2019-06-01T06:06:43.865Z,101178.08
2019-06-01T06:09:13.314Z,101178.67
2019-06-01T06:11:41.923Z,101182.34
2019-06-01T06:14:11.468Z,101179.14
2019-06-01T06:16:40.179Z,101179.23
2019-06-01T06:19:08.623Z,101182.34
2019-06-01T06:21:37.042Z,101186.02
2019-06-01T06:24:05.649Z,101184.64
2019-06-01T06:26:34.163Z,101184.55
2019-06-01T06:29:02.659Z,101190.31
2019-06-01T06:31:31.153Z,101182.44
2019-06-01T06:33:59.595Z,101186.09
2019-06-01T06:36:28.042Z,101184.04
2019-06-01T06:38:56.465Z,101185.86
2019-06-01T06:41:24.887Z,101180.35
2019-06-01T06:43:53.330Z,101179.78
2019-06-01T06:46:22.812Z,101176.80
2019-06-01T06:48:51.367Z,101179.78
2019-06-01T06:51:19.805Z,101177.20
2019-06-01T06:53:48.253Z,101180.82
2019-06-01T06:56:17.804Z,101185.67
2019-06-01T06:58:46.321Z,101184.77
2019-06-01T07:01:14.786Z,101189.77
2019-06-01T07:03:43.213Z,101185.72
2019-06-01T07:06:11.681Z,101195.77
2019-06-01T07:08:40.134Z,101197.75
2019-06-01T07:11:11.770Z,101191.64
2019-06-01T07:13:38.733Z,101188.56
2019-06-01T07:16:07.179Z,101191.84
2019-06-01T07:18:35.604Z,101196.13
2019-06-01T07:21:04.194Z,101198.08
2019-06-01T07:23:32.638Z,101188.78
2019-06-01T07:26:01.076Z,101188.23
2019-06-01T07:28:29.528Z,101192.27
2019-06-01T07:30:57.946Z,101192.05
2019-06-01T07:33:26.539Z,101197.39
2019-06-01T07:35:54.911Z,101197.09
2019-06-01T07:38:24.518Z,101194.50
2019-06-01T07:40:53.370Z,101194.41
2019-06-01T07:43:22.619Z,101193.56
2019-06-01T07:45:51.093Z,101191.27
2019-06-01T07:48:20.855Z,101192.58
2019-06-01T07:50:49.654Z,101194.75
2019-06-01T07:53:18.096Z,101196.50
2019-06-01T07:55:46.521Z,101202.06
2019-06-01T07:58:14.938Z,101196.84
2019-06-01T08:00:43.515Z,101189.83
2019-06-01T08:03:11.950Z,101196.15
2019-06-01T08:05:40.371Z,101189.62
2019-06-01T08:08:08.815Z,101187.69
2019-06-01T08:10:37.242Z,101189.78
2019-06-01T08:13:05.764Z,101192.31
2019-06-01T08:15:34.186Z,101186.72
2019-06-01T08:18:02.618Z,101192.31
2019-06-01T08:20:32.240Z,101190.38
2019-06-01T08:23:00.773Z,101196.51
2019-06-01T08:25:30.619Z,101190.34
2019-06-01T08:27:59.137Z,101190.92
2019-06-01T08:30:28.653Z,101180.19
2019-06-01T08:32:57.350Z,101180.55
2019-06-01T08:35:26.918Z,101170.11
2019-06-01T08:37:55.679Z,101177.27
2019-06-01T08:40:25.258Z,101175.77
2019-06-01T08:42:53.905Z,101172.77
2019-06-01T08:45:23.531Z,101173.73
2019-06-01T08:47:52.243Z,101171.39
2019-06-01T08:50:20.743Z,101177.27
2019-06-01T08:52:49.183Z,101169.70
2019-06-01T08:55:17.706Z,101158.45
2019-06-01T08:57:46.122Z,101155.08
2019-06-01T09:00:15.091Z,101151.53
2019-06-01T09:02:43.531Z,101156.36
2019-06-01T09:05:23.999Z,101155.94
2019-06-01T09:07:42.793Z,101154.73
2019-06-01T09:10:11.772Z,101145.95
2019-06-01T09:12:40.188Z,101143.05
2019-06-01T09:15:09.581Z,101149.37
2019-06-01T09:17:38.890Z,101144.59
2019-06-01T09:20:07.850Z,101160.98
2019-06-01T09:22:36.311Z,101156.02
2019-06-01T09:25:06.067Z,101155.81
2019-06-01T09:27:34.482Z,101152.35
2019-06-01T09:30:03.166Z,101147.86
2019-06-01T09:32:32.184Z,101153.50
2019-06-01T09:35:00.990Z,101160.86
2019-06-01T09:37:30.551Z,101149.84
2019-06-01T09:39:59.236Z,101154.16
2019-06-01T09:42:28.739Z,101156.67
2019-06-01T09:44:57.297Z,101159.47
2019-06-01T09:47:26.966Z,101160.50
2019-06-01T09:49:55.900Z,101163.78
2019-06-01T09:52:24.330Z,101154.44
2019-06-01T09:54:52.757Z,101146.48
2019-06-01T09:57:21.200Z,101144.72
2019-06-01T09:59:49.612Z,101148.54
2019-06-01T10:02:18.058Z,101139.08
2019-06-01T10:04:46.473Z,101143.13
2019-06-01T10:07:14.920Z,101138.64
2019-06-01T10:09:43.386Z,101135.59
2019-06-01T10:12:11.813Z,101136.47
2019-06-01T10:14:40.265Z,101138.65
2019-06-01T10:17:08.687Z,101130.41
2019-06-01T10:19:37.106Z,101130.00
2019-06-01T10:22:05.654Z,101127.38
2019-06-01T10:24:35.095Z,101131.36
2019-06-01T10:27:03.935Z,101141.92
2019-06-01T10:29:32.630Z,101123.50
2019-06-01T10:32:01.372Z,101126.73
2019-06-01T10:34:29.792Z,101124.76
2019-06-01T10:36:58.224Z,101123.42
2019-06-01T10:39:26.676Z,101124.34
2019-06-01T10:41:55.180Z,101114.73
2019-06-01T10:44:23.619Z,101117.00
2019-06-01T10:46:52.043Z,101122.89
2019-06-01T10:49:20.486Z,101117.22
2019-06-01T10:51:48.897Z,101115.44
2019-06-01T10:54:17.332Z,101112.69
2019-06-01T10:56:45.745Z,101103.63
2019-06-01T10:59:14.157Z,101106.41
2019-06-01T11:01:42.832Z,101106.09
2019-06-01T11:04:11.594Z,101105.45
2019-06-01T11:06:45.155Z,101102.90
2019-06-01T11:09:10.483Z,101106.12
2019-06-01T11:11:39.152Z,101096.80
2019-06-01T11:14:07.896Z,101095.83
2019-06-01T11:16:37.315Z,101093.31
2019-06-01T11:19:05.966Z,101094.58
2019-06-01T11:21:35.532Z,101099.28
2019-06-01T11:24:04.634Z,101087.00
2019-06-01T11:26:33.340Z,101085.32
2019-06-01T11:29:01.781Z,101082.45
2019-06-01T11:31:30.226Z,101082.94
2019-06-01T11:33:58.673Z,101078.41
2019-06-01T11:36:27.123Z,101079.92
2019-06-01T11:38:55.547Z,101074.55
2019-06-01T11:41:24.051Z,101075.13
2019-06-01T11:43:52.518Z,101067.38
2019-06-01T11:46:20.958Z,101072.50
2019-06-01T11:48:49.386Z,101071.35
2019-06-01T11:51:17.837Z,101065.91
2019-06-01T11:53:46.260Z,101064.50
2019-06-01T11:56:14.769Z,101060.04
2019-06-01T11:58:43.434Z,101056.05
2019-06-01T12:01:12.002Z,101052.43
2019-06-01T12:03:41.726Z,101051.97
2019-06-01T12:06:10.248Z,101050.46
2019-06-01T12:08:39.881Z,101055.03
2019-06-01T12:11:08.572Z,101046.49
2019-06-01T12:13:38.084Z,101050.23
2019-06-01T12:16:06.838Z,101046.45
2019-06-01T12:18:36.361Z,101047.07
2019-06-01T12:21:05.256Z,101043.36
2019-06-01T12:23:33.663Z,101040.26
2019-06-01T12:26:02.068Z,101040.56
2019-06-01T12:28:30.573Z,101035.75
2019-06-01T12:30:58.991Z,101034.61
2019-06-01T12:33:27.468Z,101028.05
2019-06-01T12:35:55.913Z,101025.81
2019-06-01T12:38:24.364Z,101028.56
2019-06-01T12:40:52.782Z,101023.48
2019-06-01T12:43:21.202Z,101017.50
2019-06-01T12:46:05.466Z,101016.16
2019-06-01T12:48:19.787Z,101017.05
2019-06-01T12:50:50.748Z,101012.73
2019-06-01T12:53:18.376Z,101014.00
2019-06-01T12:55:46.831Z,101017.64
2019-06-01T12:58:15.237Z,101018.29
2019-06-01T13:00:44.222Z,101015.20
2019-06-01T13:03:12.807Z,101005.61
2019-06-01T13:05:41.569Z,101001.62
2019-06-01T13:08:10.150Z,101000.50
2019-06-01T13:10:38.573Z,101007.22
2019-06-01T13:13:07.000Z,101003.17
2019-06-01T13:15:35.425Z,101000.16
2019-06-01T13:18:03.922Z,100991.49
2019-06-01T13:20:32.340Z,100996.17
2019-06-01T13:23:00.762Z,100990.64
2019-06-01T13:25:29.201Z,100988.50
2019-06-01T13:27:57.611Z,100989.52
2019-06-01T13:30:26.041Z,100988.50
2019-06-01T13:32:54.464Z,100980.98
2019-06-01T13:35:22.898Z,100980.83
2019-06-01T13:38:10.383Z,100975.89
2019-06-01T13:40:21.562Z,100970.15
2019-06-01T13:42:51.116Z,100966.80
2019-06-01T13:45:19.991Z,100965.92
2019-06-01T13:47:49.763Z,100964.31
2019-06-01T13:50:18.654Z,100964.61
2019-06-01T13:52:48.015Z,100961.70
2019-06-01T13:55:16.828Z,100954.41
2019-06-01T13:57:46.276Z,100962.12
2019-06-01T14:00:17.171Z,100955.84
2019-06-01T14:02:49.613Z,100950.59
2019-06-01T14:05:15.485Z,100952.13
2019-06-01T14:07:45.311Z,100950.09
2019-06-01T14:10:14.640Z,100955.80
2019-06-01T14:12:43.072Z,100948.10
2019-06-01T14:15:12.917Z,100944.55
2019-06-01T14:17:41.358Z,100949.31
2019-06-01T14:20:10.020Z,100947.79
2019-06-01T14:22:38.437Z,100950.45
2019-06-01T14:25:14.100Z,100949.66
2019-06-01T14:27:38.524Z,100947.89
2019-06-01T14:30:09.318Z,100955.25
2019-06-01T14:32:38.350Z,100946.55
2019-06-01T14:35:09.750Z,100947.41
2019-06-01T14:37:38.238Z,100948.31
2019-06-01T14:40:07.231Z,100929.32
2019-06-01T14:42:35.647Z,100933.84
2019-06-01T14:45:06.702Z,100932.73
2019-06-01T14:47:35.123Z,100932.02
2019-06-01T14:50:07.449Z,100935.12
2019-06-01T14:52:36.385Z,100922.34
2019-06-01T14:55:07.707Z,100923.41
2019-06-01T14:57:36.127Z,100924.14
2019-06-01T15:00:06.878Z,100921.17
2019-06-01T15:02:35.294Z,100919.99
2019-06-01T15:05:05.805Z,100922.10
2019-06-01T15:07:34.224Z,100924.17
2019-06-01T15:10:03.017Z,100928.72
2019-06-01T15:12:31.444Z,100925.83
2019-06-01T15:14:59.850Z,100924.86
2019-06-01T15:17:28.264Z,100921.66
2019-06-01T15:19:56.683Z,100917.06
2019-06-01T15:22:25.109Z,100913.27
2019-06-01T15:24:54.246Z,100910.61
2019-06-01T15:27:22.735Z,100906.81
2019-06-01T15:29:51.139Z,100905.71
2019-06-01T15:32:19.598Z,100910.27
2019-06-01T15:34:48.010Z,100910.05
2019-06-01T15:37:16.449Z,100910.30
2019-06-01T15:39:44.874Z,100906.92
2019-06-01T15:42:13.294Z,100910.96
2019-06-01T15:44:41.725Z,100901.05
2019-06-01T15:47:10.160Z,100898.56
2019-06-01T15:49:38.584Z,100894.22
2019-06-01T15:52:07.020Z,100904.78
2019-06-01T15:54:35.442Z,100896.88
2019-06-01T15:57:03.929Z,100891.70
2019-06-01T15:59:32.352Z,100894.36
2019-06-01T16:02:01.326Z,100886.94
2019-06-01T16:04:29.945Z,100889.80
2019-06-01T16:06:59.242Z,100886.48
2019-06-01T16:09:42.046Z,100886.67
2019-06-01T16:11:59.498Z,100882.25
2019-06-01T16:14:28.129Z,100883.66
2019-06-01T16:16:57.855Z,100881.17
2019-06-01T16:19:26.668Z,100879.14
2019-06-01T16:21:55.830Z,100887.39
2019-06-01T16:24:24.394Z,100883.56
2019-06-01T16:26:54.139Z,100880.27
2019-06-01T16:29:22.730Z,100882.31
2019-06-01T16:31:51.153Z,100879.34
2019-06-01T16:34:19.585Z,100880.03
2019-06-01T16:36:48.021Z,100875.62
2019-06-01T16:39:16.448Z,100875.13
2019-06-01T16:41:44.882Z,100879.55
2019-06-01T16:44:13.350Z,100880.41
2019-06-01T16:46:41.793Z,100880.38
2019-06-01T16:49:10.217Z,100880.13
2019-06-01T16:51:56.640Z,100879.78
2019-06-01T16:54:25.671Z,100879.16
2019-06-01T16:56:55.927Z,100881.44
2019-06-01T16:59:24.608Z,100877.09
2019-06-01T17:01:53.023Z,100877.47
2019-06-01T17:04:21.528Z,100871.39
2019-06-01T17:06:49.957Z,100877.70
2019-06-01T17:09:18.414Z,100873.39
2019-06-01T17:11:46.924Z,100875.03
2019-06-01T17:14:15.345Z,100867.17
2019-06-01T17:16:43.845Z,100868.78
2019-06-01T17:19:12.258Z,100868.63
2019-06-01T17:21:40.756Z,100864.52
2019-06-01T17:24:09.235Z,100868.35
2019-06-01T17:26:37.653Z,100864.91
2019-06-01T17:29:06.234Z,100861.51
2019-06-01T17:31:34.723Z,100866.75
2019-06-01T17:34:04.534Z,100867.33
2019-06-01T17:36:33.225Z,100859.27
2019-06-01T17:39:02.057Z,100861.49
2019-06-01T17:41:30.555Z,100859.80
2019-06-01T17:43:58.967Z,100863.48
2019-06-01T17:46:27.465Z,100860.33
2019-06-01T17:48:55.904Z,100862.60
2019-06-01T17:51:24.394Z,100860.47
2019-06-01T17:53:53.493Z,100858.91
2019-06-01T17:56:22.111Z,100853.86
2019-06-01T17:58:50.555Z,100848.72
2019-06-01T18:01:18.944Z,100848.47
2019-06-01T18:03:47.361Z,100850.36
2019-06-01T18:06:15.819Z,100844.95
2019-06-01T18:08:44.225Z,100843.74
2019-06-01T18:11:12.659Z,100842.28
2019-06-01T18:13:41.157Z,100848.31
2019-06-01T18:16:10.377Z,100848.52
2019-06-01T18:18:39.080Z,100850.40
2019-06-01T18:21:08.392Z,100844.17
2019-06-01T18:23:37.025Z,100848.88
2019-06-01T18:26:06.779Z,100850.34
2019-06-01T18:28:35.624Z,100844.38
2019-06-01T18:31:04.550Z,100846.83
2019-06-01T18:33:33.400Z,100848.45
2019-06-01T18:36:01.825Z,100845.04
2019-06-01T18:38:30.265Z,100844.78
2019-06-01T18:41:09.233Z,100848.64
2019-06-01T18:43:29.033Z,100842.63
2019-06-01T18:45:58.396Z,100837.33
2019-06-01T18:48:26.818Z,100841.09
2019-06-01T18:50:55.256Z,100836.27
2019-06-01T18:53:23.734Z,100844.25
2019-06-01T18:55:53.855Z,100846.59
2019-06-01T18:58:22.423Z,100849.40
2019-06-01T19:00:50.847Z,100847.27
2019-06-01T19:03:19.265Z,100851.50
2019-06-01T19:05:47.774Z,100847.41
2019-06-01T19:08:16.415Z,100853.80
2019-06-01T19:10:45.573Z,100848.41
2019-06-01T19:13:14.072Z,100849.53
2019-06-01T19:15:42.583Z,100851.44
2019-06-01T19:18:12.514Z,100851.25
2019-06-01T19:20:41.104Z,100853.15
2019-06-01T19:23:10.657Z,100849.25
2019-06-01T19:25:39.397Z,100851.55
2019-06-01T19:28:08.850Z,100851.83
2019-06-01T19:30:40.060Z,100854.09
2019-06-01T19:33:11.848Z,100855.22
2019-06-01T19:35:39.948Z,100858.36
2019-06-01T19:38:09.146Z,100855.67
2019-06-01T19:40:39.344Z,100861.73
2019-06-01T19:43:09.545Z,100858.91
2019-06-01T19:45:38.284Z,100862.73
2019-06-01T19:48:08.308Z,100863.97
2019-06-01T19:50:37.108Z,100856.70
2019-06-01T19:53:05.663Z,100861.44
2019-06-01T19:55:34.354Z,100863.71
2019-06-01T19:58:02.862Z,100861.38
2019-06-01T20:00:31.418Z,100861.91
2019-06-01T20:02:59.831Z,100861.03
2019-06-01T20:05:28.420Z,100856.30
2019-06-01T20:07:56.860Z,100860.25
2019-06-01T20:10:25.287Z,100854.13
2019-06-01T20:12:53.704Z,100851.36
2019-06-01T20:15:23.666Z,100858.53
2019-06-01T20:17:52.087Z,100853.27
2019-06-01T20:20:21.451Z,100866.54
2019-06-01T20:22:49.857Z,100862.42
2019-06-01T20:25:19.487Z,100857.80
2019-06-01T20:27:47.934Z,100862.02
2019-06-01T20:30:17.702Z,100859.20
2019-06-01T20:32:46.382Z,100858.23
2019-06-01T20:35:16.012Z,100858.58
2019-06-01T20:37:44.599Z,100857.20
2019-06-01T20:40:14.204Z,100859.77
2019-06-01T20:42:42.829Z,100857.11
2019-06-01T20:45:12.500Z,100860.00
2019-06-01T20:47:41.256Z,100861.44
2019-06-01T20:50:10.708Z,100862.45
2019-06-01T20:52:39.197Z,100862.78
2019-06-01T20:55:09.548Z,100861.18
2019-06-01T20:57:38.015Z,100860.25
2019-06-01T21:00:13.444Z,100860.02
2019-06-01T21:02:42.194Z,100858.59
2019-06-01T21:05:11.059Z,100859.66
2019-06-01T21:07:39.467Z,100861.02
2019-06-01T21:10:09.125Z,100853.53
2019-06-01T21:12:44.728Z,100849.86
2019-06-01T21:15:08.926Z,100848.56
2019-06-01T21:17:37.366Z,100850.22
2019-06-01T21:20:09.275Z,100850.22
2019-06-01T21:22:38.124Z,100842.31
2019-06-01T21:25:07.818Z,100845.48
2019-06-01T21:27:36.218Z,100845.99
2019-06-01T21:30:07.163Z,100847.29
2019-06-01T21:32:35.594Z,100839.41
2019-06-01T21:35:05.768Z,100845.17
2019-06-01T21:37:34.216Z,100846.47
2019-06-01T21:40:02.616Z,100848.72
2019-06-01T21:42:31.025Z,100852.45
2019-06-01T21:44:59.532Z,100854.37
2019-06-01T21:47:27.933Z,100854.49
2019-06-01T21:49:56.370Z,100854.24
2019-06-01T21:52:24.794Z,100849.17
2019-06-01T21:54:53.203Z,100856.31
2019-06-01T21:57:22.325Z,100854.48
2019-06-01T21:59:50.822Z,100857.78
2019-06-01T22:02:19.298Z,100857.78
2019-06-01T22:04:47.730Z,100853.46
2019-06-01T22:07:17.306Z,100848.02
2019-06-01T22:09:45.955Z,100849.83
2019-06-01T22:12:14.375Z,100857.93
2019-06-01T22:14:42.786Z,100855.23
2019-06-01T22:17:11.226Z,100846.41
2019-06-01T22:19:39.637Z,100853.36
2019-06-01T22:22:08.068Z,100852.89
2019-06-01T22:24:36.488Z,100844.28
2019-06-01T22:27:05.171Z,100849.16
2019-06-01T22:29:33.604Z,100850.87
2019-06-01T22:32:02.030Z,100848.05
2019-06-01T22:34:30.443Z,100842.35
2019-06-01T22:36:58.861Z,100844.48
2019-06-01T22:39:27.326Z,100838.20
2019-06-01T22:41:55.801Z,100836.04
2019-06-01T22:44:24.239Z,100836.06
2019-06-01T22:46:52.650Z,100833.41
2019-06-01T22:49:21.073Z,100836.62
2019-06-01T22:51:49.554Z,100848.01
2019-06-01T22:54:17.956Z,100843.75
2019-06-01T22:56:46.416Z,100847.12
2019-06-01T22:59:14.857Z,100855.27
2019-06-01T23:01:43.259Z,100842.72
2019-06-01T23:04:11.706Z,100849.25
2019-06-01T23:06:40.136Z,100852.30
2019-06-01T23:09:09.114Z,100850.59
2019-06-01T23:11:44.654Z,100842.51
2019-06-01T23:14:13.059Z,100841.94
2019-06-01T23:16:41.568Z,100845.50
2019-06-01T23:19:09.966Z,100853.78
2019-06-01T23:21:38.399Z,100849.95
2019-06-01T23:24:06.820Z,100843.94
2019-06-01T23:26:35.216Z,100843.94
2019-06-01T23:29:03.719Z,100844.20
2019-06-01T23:31:32.643Z,100845.23
2019-06-01T23:34:01.344Z,100840.84
2019-06-01T23:36:30.674Z,100840.69
2019-06-01T23:38:59.259Z,100834.09
2019-06-01T23:41:28.745Z,100837.97
2019-06-01T23:44:11.245Z,100844.27
2019-06-01T23:46:27.438Z,100830.69
2019-06-01T23:48:55.864Z,100831.71
2019-06-01T23:51:25.334Z,100831.61
2019-06-01T23:53:53.901Z,100827.97
2019-06-01T23:56:23.525Z,100823.16
2019-06-01T23:58:52.118Z,100825.52
